Time;durP1;ratioP1;P1;durP2;ratioP2;P2;SDS_P1;SDS_P2;PMS_P1;PMS_P2;Temp;Humidity;BMP_temperature;BMP_pressure;BME280_temperature;BME280_humidity;BME280_pressure;Samples;Min_cycle;Max_cycle;Signal;HPM_P1;HPM_P2
2022/10/04 00:00:40;;;;;;;30.33;22.27;;;;;;;;;;6213453;28;20088;-66
2022/10/04 00:03:46;;;;;;;28.77;21.10;;;;;;;;;;6218854;28;20095;-68
2022/10/04 00:06:50;;;;;;;30.50;21.35;;;;;;;;;;6217854;28;20050;-66
2022/10/04 00:09:54;;;;;;;32.05;20.42;;;;;;;;;;6218866;28;20046;-66
2022/10/04 00:12:58;;;;;;;26.45;20.73;;;;;;;;;;6221898;28;20057;-66
2022/10/04 00:16:00;;;;;;;31.55;21.63;;;;;;;;;;6215649;28;20061;-68
2022/10/04 00:19:24;;;;;;;27.08;21.02;;;;;;;;;;6211959;28;20054;-66
2022/10/04 00:22:27;;;;;;;25.88;20.40;;;;;;;;;;6211217;28;20058;-66
2022/10/04 00:25:36;;;;;;;31.42;21.30;;;;;;;;;;6213100;28;20056;-65
2022/10/04 00:28:45;;;;;;;28.65;20.85;;;;;;;;;;6210918;28;20081;-65
2022/10/04 00:32:20;;;;;;;29.02;21.15;;;;;;;;;;6212917;28;20304;-66
2022/10/04 00:35:49;;;;;;;30.55;20.48;;;;;;;;;;6212931;28;20058;-66
2022/10/04 00:39:03;;;;;;;30.85;20.25;;;;;;;;;;6215560;28;20127;-65
2022/10/04 00:42:08;;;;;;;;;;;;;;;;;;6201987;28;20286;-65
2022/10/04 00:45:15;;;;;;;30.52;21.63;;;;;;;;;;6214519;28;20141;-66
2022/10/04 00:48:36;;;;;;;29.05;20.75;;;;;;;;;;6210992;28;20358;-66
2022/10/04 00:51:42;;;;;;;26.77;20.67;;;;;;;;;;6213255;28;20217;-66
2022/10/04 00:54:49;;;;;;;27.85;21.38;;;;;;;;;;6208614;28;20442;-66
2022/10/04 00:57:53;;;;;;;28.52;21.42;;;;;;;;;;6210786;28;20057;-65
2022/10/04 01:00:55;;;;;;;30.42;20.90;;;;;;;;;;6214942;28;20058;-69
2022/10/04 01:03:58;;;;;;;27.48;20.27;;;;;;;;;;6216944;28;20133;-66
2022/10/04 01:07:02;;;;;;;30.57;20.30;;;;;;;;;;6218813;28;20054;-67
2022/10/04 01:10:07;;;;;;;26.35;20.70;;;;;;;;;;6217557;28;20053;-65
2022/10/04 01:13:12;;;;;;;28.45;19.70;;;;;;;;;;6214603;28;20167;-66
2022/10/04 01:16:16;;;;;;;30.63;21.20;;;;;;;;;;6216263;28;20068;-66
2022/10/04 01:19:30;;;;;;;26.48;20.13;;;;;;;;;;6216263;28;20046;-66
2022/10/04 01:22:36;;;;;;;27.27;19.75;;;;;;;;;;6216333;28;20057;-66
2022/10/04 01:25:47;;;;;;;29.13;20.23;;;;;;;;;;6209842;28;20105;-66
2022/10/04 01:28:49;;;;;;;26.85;19.23;;;;;;;;;;6215348;28;20101;-66
2022/10/04 01:31:52;;;;;;;25.88;19.08;;;;;;;;;;6220016;28;20062;-66
2022/10/04 01:34:54;;;;;;;25.92;18.42;;;;;;;;;;6217771;28;20049;-66
2022/10/04 01:37:57;;;;;;;30.95;19.30;;;;;;;;;;6220450;28;20072;-66
2022/10/04 01:41:00;;;;;;;25.00;18.95;;;;;;;;;;6213950;28;20054;-65
2022/10/04 01:44:03;;;;;;;24.90;18.70;;;;;;;;;;6220972;28;20058;-66
2022/10/04 01:47:08;;;;;;;25.98;18.73;;;;;;;;;;6216714;28;20058;-65
2022/10/04 01:50:15;;;;;;;25.15;19.35;;;;;;;;;;6212488;28;20412;-66
2022/10/04 01:53:20;;;;;;;24.17;18.73;;;;;;;;;;6216320;28;20069;-67
2022/10/04 01:56:26;;;;;;;26.58;18.75;;;;;;;;;;6217669;28;20092;-66
2022/10/04 01:59:31;;;;;;;23.40;19.02;;;;;;;;;;6217290;28;20065;-66
2022/10/04 02:02:36;;;;;;;25.55;18.23;;;;;;;;;;6218286;28;20045;-66
2022/10/04 02:05:41;;;;;;;27.52;19.27;;;;;;;;;;6219556;28;20103;-66
2022/10/04 02:08:48;;;;;;;28.63;19.23;;;;;;;;;;6215329;28;20050;-66
2022/10/04 02:11:51;;;;;;;28.70;18.98;;;;;;;;;;6215632;28;20045;-67
2022/10/04 02:14:54;;;;;;;25.83;18.65;;;;;;;;;;6218421;28;20116;-66
2022/10/04 02:17:57;;;;;;;24.55;18.88;;;;;;;;;;6219606;28;20159;-65
2022/10/04 02:20:59;;;;;;;23.17;17.90;;;;;;;;;;6214581;28;20160;-66
2022/10/04 02:24:03;;;;;;;24.83;18.02;;;;;;;;;;6216554;28;20049;-68
2022/10/04 02:27:05;;;;;;;29.10;18.10;;;;;;;;;;6218861;28;20041;-66
2022/10/04 02:30:09;;;;;;;24.98;18.45;;;;;;;;;;6219742;28;20042;-66
2022/10/04 02:33:10;;;;;;;28.38;18.73;;;;;;;;;;6202506;28;20065;-68
2022/10/04 02:36:13;;;;;;;25.95;18.88;;;;;;;;;;6217340;28;20096;-66
2022/10/04 02:39:20;;;;;;;24.02;18.75;;;;;;;;;;6217302;28;20062;-66
2022/10/04 02:42:28;;;;;;;22.40;18.30;;;;;;;;;;6213268;28;20049;-66
2022/10/04 02:45:37;;;;;;;25.00;18.10;;;;;;;;;;6216798;28;20101;-65
2022/10/04 02:48:44;;;;;;;26.08;19.05;;;;;;;;;;6214459;28;20088;-65
2022/10/04 02:51:50;;;;;;;23.63;19.15;;;;;;;;;;6212837;28;20256;-65
2022/10/04 02:54:59;;;;;;;25.52;19.23;;;;;;;;;;6214118;28;20064;-67
2022/10/04 02:58:01;;;;;;;24.20;18.05;;;;;;;;;;6220522;28;20088;-65
2022/10/04 03:01:03;;;;;;;23.30;17.92;;;;;;;;;;6216554;28;20046;-65
2022/10/04 03:04:04;;;;;;;24.58;18.30;;;;;;;;;;6220611;28;20058;-66
2022/10/04 03:07:08;;;;;;;22.23;17.70;;;;;;;;;;6221834;28;20050;-66
2022/10/04 03:10:14;;;;;;;24.42;18.60;;;;;;;;;;6213077;28;20058;-66
2022/10/04 03:13:16;;;;;;;23.08;17.58;;;;;;;;;;6216078;28;20050;-65
2022/10/04 03:16:18;;;;;;;24.08;17.20;;;;;;;;;;6218473;28;20107;-67
2022/10/04 03:19:22;;;;;;;25.60;17.58;;;;;;;;;;6213242;28;20088;-65
2022/10/04 03:22:24;;;;;;;21.75;16.73;;;;;;;;;;6227030;28;20075;-65
2022/10/04 03:25:30;;;;;;;27.20;18.00;;;;;;;;;;6292151;28;20044;-68
2022/10/04 03:28:31;;;;;;;22.50;17.17;;;;;;;;;;6286450;28;20052;-66
2022/10/04 03:31:33;;;;;;;27.33;17.15;;;;;;;;;;6289610;28;20094;-65
2022/10/04 03:34:38;;;;;;;20.08;15.88;;;;;;;;;;6289935;28;20045;-67
2022/10/04 03:37:40;;;;;;;20.83;16.15;;;;;;;;;;6294200;28;20053;-67
2022/10/04 03:40:50;;;;;;;20.73;15.73;;;;;;;;;;6297452;28;20109;-66
2022/10/04 03:43:54;;;;;;;21.27;15.25;;;;;;;;;;6295657;28;20041;-66
2022/10/04 03:46:56;;;;;;;25.92;14.05;;;;;;;;;;6296245;28;20367;-65
2022/10/04 03:49:59;;;;;;;21.52;15.13;;;;;;;;;;6292761;28;20390;-67
2022/10/04 03:53:05;;;;;;;21.63;15.13;;;;;;;;;;6294616;28;20103;-66
2022/10/04 03:56:12;;;;;;;21.25;14.30;;;;;;;;;;6296482;28;20045;-66
2022/10/04 03:59:16;;;;;;;19.25;13.75;;;;;;;;;;6294500;28;20099;-67
2022/10/04 04:02:23;;;;;;;24.10;14.45;;;;;;;;;;6295836;28;20051;-66
2022/10/04 04:05:28;;;;;;;22.52;14.95;;;;;;;;;;6290312;28;20052;-62
2022/10/04 04:08:33;;;;;;;20.77;13.82;;;;;;;;;;6291114;28;20341;-67
2022/10/04 04:11:36;;;;;;;18.23;13.95;;;;;;;;;;6294258;28;20075;-65
2022/10/04 04:14:39;;;;;;;21.48;14.60;;;;;;;;;;6289472;28;21005;-64
2022/10/04 04:17:42;;;;;;;17.90;14.93;;;;;;;;;;6290620;28;20044;-65
2022/10/04 04:20:44;;;;;;;21.73;15.27;;;;;;;;;;6290621;28;20048;-67
2022/10/04 04:23:49;;;;;;;22.30;13.90;;;;;;;;;;6287090;28;20115;-64
2022/10/04 04:26:55;;;;;;;22.50;15.13;;;;;;;;;;6288591;28;20068;-62
2022/10/04 04:29:59;;;;;;;17.33;14.27;;;;;;;;;;6286565;28;20313;-64
2022/10/04 04:33:07;;;;;;;17.75;13.73;;;;;;;;;;6288897;28;20075;-64
2022/10/04 04:36:12;;;;;;;21.73;14.52;;;;;;;;;;6292794;28;20214;-63
2022/10/04 04:42:38;;;;;;;18.90;13.45;;;;;;;;;;6289301;28;20053;-65
2022/10/04 04:45:40;;;;;;;18.05;13.50;;;;;;;;;;6290191;28;20402;-63
2022/10/04 04:48:43;;;;;;;20.92;13.38;;;;;;;;;;6287893;28;20121;-63
2022/10/04 04:51:50;;;;;;;21.63;14.10;;;;;;;;;;6286556;28;20719;-63
2022/10/04 04:54:53;;;;;;;19.20;12.80;;;;;;;;;;6287927;28;20112;-63
2022/10/04 04:57:57;;;;;;;21.67;13.27;;;;;;;;;;6288939;28;20064;-63
2022/10/04 05:01:01;;;;;;;18.05;13.43;;;;;;;;;;6286409;28;20044;-65
2022/10/04 05:04:04;;;;;;;22.02;14.35;;;;;;;;;;6286661;28;20049;-64
2022/10/04 05:07:18;;;;;;;27.98;13.55;;;;;;;;;;6285798;28;20059;-65
2022/10/04 05:10:31;;;;;;;16.63;13.23;;;;;;;;;;6286663;28;20045;-63
2022/10/04 05:13:39;;;;;;;24.80;13.23;;;;;;;;;;6289568;28;20075;-68
2022/10/04 05:16:43;;;;;;;21.50;13.32;;;;;;;;;;6288143;28;20143;-69
2022/10/04 05:19:45;;;;;;;;;;;;;;;;;;6289708;28;20064;-63
2022/10/04 05:22:48;;;;;;;16.98;13.02;;;;;;;;;;6282017;28;19947;-64
2022/10/04 05:25:50;;;;;;;22.47;12.53;;;;;;;;;;6288034;28;20056;-64
2022/10/04 05:28:53;;;;;;;17.33;12.55;;;;;;;;;;6291416;28;20802;-65
2022/10/04 05:32:03;;;;;;;22.52;13.70;;;;;;;;;;6286861;28;20351;-68
2022/10/04 05:35:15;;;;;;;20.98;13.10;;;;;;;;;;6285667;28;20108;-64
2022/10/04 05:38:26;;;;;;;24.92;14.70;;;;;;;;;;6288827;28;20064;-64
2022/10/04 05:41:32;;;;;;;19.98;12.25;;;;;;;;;;6287409;28;20116;-66
2022/10/04 05:44:39;;;;;;;19.17;13.95;;;;;;;;;;6286990;28;20045;-65
2022/10/04 05:47:41;;;;;;;18.77;14.10;;;;;;;;;;6286880;28;20060;-64
2022/10/04 05:50:44;;;;;;;18.17;12.88;;;;;;;;;;6286303;28;20047;-64
2022/10/04 05:53:46;;;;;;;21.33;13.57;;;;;;;;;;6289711;28;20056;-64
2022/10/04 05:57:20;;;;;;;19.25;13.13;;;;;;;;;;6290309;28;20045;-65
2022/10/04 06:00:23;;;;;;;;;;;;;;;;;;6290625;28;20229;-65
2022/10/04 06:03:38;;;;;;;19.10;13.32;;;;;;;;;;6290468;28;19916;-65
2022/10/04 06:06:48;;;;;;;18.38;12.60;;;;;;;;;;6292109;28;20057;-66
2022/10/04 06:10:19;;;;;;;17.02;12.68;;;;;;;;;;6291733;28;20107;-65
2022/10/04 06:13:44;;;;;;;16.42;12.55;;;;;;;;;;6291018;28;20040;-69
2022/10/04 06:16:58;;;;;;;16.10;13.15;;;;;;;;;;6288544;28;20597;-64
2022/10/04 06:20:22;;;;;;;17.67;12.30;;;;;;;;;;6289103;28;20060;-65
2022/10/04 06:23:24;;;;;;;19.45;12.63;;;;;;;;;;6288313;28;20091;-66
2022/10/04 06:26:31;;;;;;;18.35;12.07;;;;;;;;;;6292346;28;20047;-68
2022/10/04 06:29:35;;;;;;;21.02;12.07;;;;;;;;;;6289912;28;20072;-65
2022/10/04 06:33:08;;;;;;;24.80;13.52;;;;;;;;;;6289456;28;20285;-69
2022/10/04 06:36:27;;;;;;;16.47;11.30;;;;;;;;;;6291690;28;20344;-65
2022/10/04 06:39:52;;;;;;;18.40;11.77;;;;;;;;;;6276956;28;20477;-66
2022/10/04 06:43:08;;;;;;;18.85;11.65;;;;;;;;;;6290640;28;20066;-65
2022/10/04 06:46:16;;;;;;;14.75;11.00;;;;;;;;;;6291333;28;20048;-66
2022/10/04 06:49:31;;;;;;;19.50;10.88;;;;;;;;;;6287543;28;20753;-67
2022/10/04 06:52:47;;;;;;;17.02;10.48;;;;;;;;;;6289157;28;20068;-66
2022/10/04 06:56:16;;;;;;;14.88;11.10;;;;;;;;;;6289335;28;20099;-65
2022/10/04 06:59:39;;;;;;;17.45;11.43;;;;;;;;;;6266033;28;20103;-65
2022/10/04 07:02:43;;;;;;;16.27;10.80;;;;;;;;;;6282587;28;20269;-67
2022/10/04 07:05:48;;;;;;;15.32;10.20;;;;;;;;;;6279798;28;20057;-63
2022/10/04 07:08:51;;;;;;;20.45;10.57;;;;;;;;;;6275584;28;20064;-65
2022/10/04 07:11:55;;;;;;;20.65;9.90;;;;;;;;;;6289105;28;20057;-66
2022/10/04 07:15:00;;;;;;;14.50;9.52;;;;;;;;;;6294728;28;20074;-67
2022/10/04 07:18:06;;;;;;;18.23;10.15;;;;;;;;;;6298469;28;20325;-66
2022/10/04 07:21:12;;;;;;;13.68;9.02;;;;;;;;;;6296394;28;20056;-66
2022/10/04 07:24:20;;;;;;;17.35;9.77;;;;;;;;;;6294418;28;20072;-66
2022/10/04 07:27:26;;;;;;;18.08;11.05;;;;;;;;;;6289037;28;20044;-65
2022/10/04 07:30:35;;;;;;;18.42;10.90;;;;;;;;;;6289943;28;20105;-66
2022/10/04 07:33:44;;;;;;;17.63;11.10;;;;;;;;;;6291198;28;20350;-64
2022/10/04 07:36:50;;;;;;;17.23;11.07;;;;;;;;;;6289399;28;20059;-65
2022/10/04 07:39:57;;;;;;;19.35;10.32;;;;;;;;;;6290240;28;20113;-65
2022/10/04 07:43:01;;;;;;;18.10;10.93;;;;;;;;;;6287010;28;20314;-65
2022/10/04 07:46:05;;;;;;;15.68;10.68;;;;;;;;;;6288653;28;20056;-66
2022/10/04 07:49:13;;;;;;;19.25;11.02;;;;;;;;;;6287238;28;20045;-66
2022/10/04 07:52:28;;;;;;;20.17;12.25;;;;;;;;;;6285470;28;20052;-66
2022/10/04 07:55:39;;;;;;;14.32;9.80;;;;;;;;;;6288696;28;20058;-65
2022/10/04 07:58:47;;;;;;;15.55;9.88;;;;;;;;;;6288849;28;20529;-66
2022/10/04 08:01:54;;;;;;;13.68;9.65;;;;;;;;;;6291574;28;20052;-68
2022/10/04 08:05:05;;;;;;;12.48;9.90;;;;;;;;;;6289224;28;20044;-68
2022/10/04 08:08:36;;;;;;;18.63;11.60;;;;;;;;;;6289801;28;20099;-65
2022/10/04 08:11:42;;;;;;;20.05;12.95;;;;;;;;;;6290819;28;20205;-64
2022/10/04 08:14:54;;;;;;;17.17;12.00;;;;;;;;;;6287619;28;20357;-65
2022/10/04 08:18:01;;;;;;;16.58;12.02;;;;;;;;;;6287042;28;20180;-65
2022/10/04 08:21:06;;;;;;;22.42;10.77;;;;;;;;;;6289012;28;20105;-67
2022/10/04 08:24:16;;;;;;;16.75;11.02;;;;;;;;;;6286548;28;20313;-66
2022/10/04 08:27:30;;;;;;;15.82;10.77;;;;;;;;;;6288678;28;20072;-67
2022/10/04 08:30:40;;;;;;;18.20;11.95;;;;;;;;;;6291819;28;20060;-68
2022/10/04 08:33:52;;;;;;;15.43;11.70;;;;;;;;;;6288658;28;20123;-65
2022/10/04 08:37:04;;;;;;;14.60;10.65;;;;;;;;;;6289846;28;20245;-66
2022/10/04 08:40:44;;;;;;;13.55;10.98;;;;;;;;;;6289374;28;20045;-68
2022/10/04 08:44:09;;;;;;;185.35;148.18;;;;;;;;;;6290310;28;20044;-64
2022/10/04 08:47:56;;;;;;;21.17;15.65;;;;;;;;;;6290400;28;20052;-65
2022/10/04 08:51:31;;;;;;;133.43;95.82;;;;;;;;;;6136501;28;20145;-65
2022/10/04 08:54:56;;;;;;;15.00;13.05;;;;;;;;;;6184633;28;20058;-63
2022/10/04 08:58:24;;;;;;;53.67;39.78;;;;;;;;;;6188726;28;20385;-63
2022/10/04 09:01:39;;;;;;;23.55;16.73;;;;;;;;;;6174506;28;20058;-66
2022/10/04 09:05:07;;;;;;;103.28;67.00;;;;;;;;;;6186676;28;20080;-63
2022/10/04 09:08:37;;;;;;;93.88;67.45;;;;;;;;;;6187384;28;20259;-62
2022/10/04 09:11:58;;;;;;;35.35;29.00;;;;;;;;;;6184545;28;20374;-63
2022/10/04 09:15:17;;;;;;;18.58;11.30;;;;;;;;;;6185593;28;20066;-67
2022/10/04 09:18:49;;;;;;;11.50;10.23;;;;;;;;;;6182444;28;20411;-67
2022/10/04 09:22:17;;;;;;;15.00;11.05;;;;;;;;;;6186056;28;20311;-68
2022/10/04 09:25:41;;;;;;;14.30;10.07;;;;;;;;;;6204576;28;20356;-69
2022/10/04 09:29:16;;;;;;;13.63;9.65;;;;;;;;;;6288924;28;20438;-68
2022/10/04 09:32:48;;;;;;;16.83;8.88;;;;;;;;;;6293097;28;20053;-68
2022/10/04 09:36:06;;;;;;;15.90;10.05;;;;;;;;;;6289588;28;20096;-67
2022/10/04 09:39:17;;;;;;;13.90;9.35;;;;;;;;;;6292098;28;20348;-67
2022/10/04 09:42:40;;;;;;;13.68;10.60;;;;;;;;;;6290339;28;20056;-68
2022/10/04 09:46:18;;;;;;;14.95;11.48;;;;;;;;;;6292409;28;20064;-68
2022/10/04 09:49:39;;;;;;;13.38;9.27;;;;;;;;;;6218307;28;20065;-67
2022/10/04 09:52:47;;;;;;;13.07;10.75;;;;;;;;;;6201980;28;20209;-68
2022/10/04 09:56:03;;;;;;;15.30;10.88;;;;;;;;;;6193983;28;20615;-67
2022/10/04 09:59:20;;;;;;;14.93;11.77;;;;;;;;;;6203345;28;20065;-68
2022/10/04 10:02:54;;;;;;;12.77;9.95;;;;;;;;;;6213126;28;20237;-68
2022/10/04 10:06:18;;;;;;;18.10;12.45;;;;;;;;;;6215029;28;20050;-68
2022/10/04 10:13:38;;;;;;;16.40;10.43;;;;;;;;;;6197099;28;20058;-68
2022/10/04 10:16:38;;;;;;;14.15;12.63;;;;;;;;;;6211326;28;20065;-68
2022/10/04 10:19:52;;;;;;;14.10;12.38;;;;;;;;;;6212188;28;20074;-68
2022/10/04 10:23:42;;;;;;;11.95;10.75;;;;;;;;;;6212394;28;20058;-69
2022/10/04 10:26:52;;;;;;;12.02;10.82;;;;;;;;;;6290079;28;20045;-68
2022/10/04 10:30:14;;;;;;;14.05;12.13;;;;;;;;;;6287877;28;20084;-69
2022/10/04 10:33:31;;;;;;;13.70;10.60;;;;;;;;;;6290320;28;20061;-68
2022/10/04 10:36:59;;;;;;;12.02;10.82;;;;;;;;;;6289199;28;20045;-71
2022/10/04 10:40:23;;;;;;;11.23;9.95;;;;;;;;;;6290640;28;20060;-70
2022/10/04 10:43:37;;;;;;;11.13;9.98;;;;;;;;;;6288934;28;20277;-68
2022/10/04 10:46:53;;;;;;;15.48;11.20;;;;;;;;;;6287764;28;20123;-69
2022/10/04 10:50:06;;;;;;;16.98;12.95;;;;;;;;;;6288071;28;20060;-70
2022/10/04 10:53:51;;;;;;;14.65;13.25;;;;;;;;;;6287682;28;20052;-68
2022/10/04 10:57:00;;;;;;;14.73;13.23;;;;;;;;;;6285126;28;20335;-68
2022/10/04 11:00:21;;;;;;;15.02;13.55;;;;;;;;;;6290845;28;20083;-70
2022/10/04 11:03:39;;;;;;;14.50;12.70;;;;;;;;;;6295523;28;20052;-69
2022/10/04 11:06:56;;;;;;;15.23;13.73;;;;;;;;;;6293939;28;20114;-71
2022/10/04 11:10:31;;;;;;;16.00;14.32;;;;;;;;;;6293572;28;20236;-69
2022/10/04 11:14:28;;;;;;;17.88;15.25;;;;;;;;;;6282512;28;20060;-70
2022/10/04 11:17:43;;;;;;;17.73;14.60;;;;;;;;;;6214281;28;20231;-71
2022/10/04 11:20:58;;;;;;;17.90;15.98;;;;;;;;;;6215885;28;20152;-68
2022/10/04 11:24:24;;;;;;;22.85;20.45;;;;;;;;;;6215218;28;20053;-69
2022/10/04 11:27:43;;;;;;;23.02;20.63;;;;;;;;;;6216018;28;20439;-69
2022/10/04 11:31:16;;;;;;;23.85;20.30;;;;;;;;;;6216699;28;20104;-69
2022/10/04 11:34:50;;;;;;;26.88;22.58;;;;;;;;;;6216556;28;20050;-69
2022/10/04 11:38:04;;;;;;;23.60;21.10;;;;;;;;;;6204367;28;20286;-70
2022/10/04 11:41:15;;;;;;;26.58;22.30;;;;;;;;;;6216688;28;20054;-68
2022/10/04 11:44:53;;;;;;;26.15;23.23;;;;;;;;;;6216371;28;20064;-69
2022/10/04 11:48:06;;;;;;;26.50;23.85;;;;;;;;;;6236291;28;20068;-71
2022/10/04 11:51:31;;;;;;;;;;;;;;;;;;6293359;28;20044;-71
2022/10/04 11:55:16;;;;;;;23.05;20.75;;;;;;;;;;6277533;28;19985;-69
2022/10/04 11:58:27;;;;;;;26.98;24.20;;;;;;;;;;6266794;28;20188;-69
2022/10/04 12:01:59;;;;;;;26.58;24.00;;;;;;;;;;6293194;28;20083;-69
2022/10/04 12:05:25;;;;;;;23.67;21.17;;;;;;;;;;6294467;28;20054;-69
2022/10/04 12:08:32;;;;;;;27.17;23.58;;;;;;;;;;6290355;28;20158;-69
2022/10/04 12:15:41;;;;;;;26.30;23.45;;;;;;;;;;6294663;28;20037;-68
2022/10/04 12:19:05;;;;;;;26.48;23.77;;;;;;;;;;6293927;28;20255;-68
2022/10/04 12:22:19;;;;;;;26.50;23.70;;;;;;;;;;6295627;28;20113;-67
2022/10/04 12:25:52;;;;;;;25.23;22.30;;;;;;;;;;6295184;28;20070;-70
2022/10/04 12:29:08;;;;;;;28.85;23.98;;;;;;;;;;6292628;28;20347;-69
2022/10/04 12:32:14;;;;;;;27.23;23.55;;;;;;;;;;6296367;28;20198;-68
2022/10/04 12:35:22;;;;;;;26.77;23.88;;;;;;;;;;6294351;28;20057;-68
2022/10/04 12:38:41;;;;;;;26.88;21.98;;;;;;;;;;6295351;28;20044;-68
2022/10/04 12:41:50;;;;;;;25.63;23.02;;;;;;;;;;6292035;28;20045;-68
2022/10/04 12:45:12;;;;;;;23.25;20.80;;;;;;;;;;6291275;28;20067;-67
2022/10/04 12:48:27;;;;;;;27.17;22.92;;;;;;;;;;6291824;28;20045;-70
2022/10/04 12:51:38;;;;;;;27.40;22.13;;;;;;;;;;6291169;28;20120;-69
2022/10/04 12:54:43;;;;;;;31.83;21.77;;;;;;;;;;6295563;28;20190;-68
2022/10/04 12:57:50;;;;;;;22.13;18.95;;;;;;;;;;6292139;28;20053;-67
2022/10/04 13:00:53;;;;;;;21.35;18.40;;;;;;;;;;6292188;28;20052;-68
2022/10/04 13:04:00;;;;;;;;;;;;;;;;;;6292000;28;20236;-70
2022/10/04 13:07:17;;;;;;;22.38;19.00;;;;;;;;;;6292828;28;19928;-69
2022/10/04 13:10:31;;;;;;;23.70;18.70;;;;;;;;;;6286430;28;20098;-69
2022/10/04 13:13:46;;;;;;;22.02;18.98;;;;;;;;;;6287076;28;20052;-70
2022/10/04 13:16:53;;;;;;;21.58;17.25;;;;;;;;;;6285724;28;20280;-68
2022/10/04 13:20:03;;;;;;;22.67;17.30;;;;;;;;;;6287909;28;20364;-68
2022/10/04 13:23:11;;;;;;;26.75;22.83;;;;;;;;;;6286176;28;20256;-68
2022/10/04 13:26:27;;;;;;;23.58;19.67;;;;;;;;;;6290467;28;20063;-70
2022/10/04 13:29:31;;;;;;;26.38;22.00;;;;;;;;;;6294290;28;20057;-68
2022/10/04 13:32:41;;;;;;;25.08;21.15;;;;;;;;;;6292433;28;20052;-69
2022/10/04 13:35:47;;;;;;;23.88;18.92;;;;;;;;;;6286446;28;20060;-69
2022/10/04 13:39:00;;;;;;;21.20;17.50;;;;;;;;;;6285903;28;20245;-69
2022/10/04 13:42:16;;;;;;;23.13;16.42;;;;;;;;;;6280888;28;20056;-68
2022/10/04 13:45:36;;;;;;;20.92;16.75;;;;;;;;;;6283751;28;20143;-70
2022/10/04 13:48:59;;;;;;;21.20;18.63;;;;;;;;;;6287570;28;20053;-70
2022/10/04 13:59:16;;;;;;;23.85;19.50;;;;;;;;;;6286245;28;20068;-68
2022/10/04 14:02:53;;;;;;;21.70;16.75;;;;;;;;;;6284743;28;20044;-69
2022/10/04 14:06:26;;;;;;;23.48;18.05;;;;;;;;;;6286745;28;20069;-67
2022/10/04 14:09:34;;;;;;;;;;;;;;;;;;6285775;28;20045;-70
2022/10/04 14:13:04;;;;;;;17.80;15.75;;;;;;;;;;6292043;28;19920;-69
2022/10/04 14:16:25;;;;;;;16.75;14.30;;;;;;;;;;6290603;28;20283;-69
2022/10/04 14:19:48;;;;;;;23.00;17.77;;;;;;;;;;6288511;28;20057;-67
2022/10/04 14:23:30;;;;;;;17.38;14.77;;;;;;;;;;6289245;28;20052;-70
2022/10/04 14:26:44;;;;;;;18.58;15.68;;;;;;;;;;6253074;28;20064;-70
2022/10/04 14:30:06;;;;;;;18.83;15.32;;;;;;;;;;6284246;28;20108;-69
2022/10/04 14:33:54;;;;;;;17.88;14.20;;;;;;;;;;6287835;28;20067;-69
2022/10/04 14:36:59;;;;;;;;;;;;;;;;;;6196259;28;20239;-64
2022/10/04 14:40:21;;;;;;;82.07;65.13;;;;;;;;;;6194902;28;19955;-63
2022/10/04 14:43:58;;;;;;;36.05;29.27;;;;;;;;;;6193398;28;20249;-63
2022/10/04 14:47:12;;;;;;;22.73;16.85;;;;;;;;;;6197558;28;20161;-65
2022/10/04 14:50:24;;;;;;;22.80;17.30;;;;;;;;;;6196956;28;20050;-73
2022/10/04 14:53:31;;;;;;;19.80;15.50;;;;;;;;;;6192224;28;20302;-69
2022/10/04 14:56:45;;;;;;;21.17;16.83;;;;;;;;;;6195679;28;20050;-69
2022/10/04 15:00:00;;;;;;;23.45;16.85;;;;;;;;;;6194159;28;20090;-66
2022/10/04 15:03:17;;;;;;;23.80;16.10;;;;;;;;;;6193760;28;20057;-67
2022/10/04 15:06:35;;;;;;;26.88;17.65;;;;;;;;;;6206803;28;20252;-66
2022/10/04 15:09:52;;;;;;;18.30;15.27;;;;;;;;;;6291125;28;20233;-66
2022/10/04 15:12:58;;;;;;;21.17;16.52;;;;;;;;;;6292561;28;20049;-67
2022/10/04 15:16:07;;;;;;;20.80;16.13;;;;;;;;;;6292656;28;20060;-69
2022/10/04 15:19:11;;;;;;;23.25;15.98;;;;;;;;;;6293374;28;20788;-68
2022/10/04 15:22:22;;;;;;;21.85;16.15;;;;;;;;;;6288940;28;20243;-65
2022/10/04 15:25:39;;;;;;;17.25;14.48;;;;;;;;;;6293955;28;20041;-67
2022/10/04 15:29:03;;;;;;;240.55;181.45;;;;;;;;;;6291304;28;20090;-71
2022/10/04 15:32:15;;;;;;;183.27;117.13;;;;;;;;;;6294721;28;20056;-64
2022/10/04 15:35:24;;;;;;;100.15;71.97;;;;;;;;;;6294293;28;20049;-64
2022/10/04 15:38:31;;;;;;;55.33;38.25;;;;;;;;;;6294237;28;20101;-64
2022/10/04 15:41:37;;;;;;;20.02;16.25;;;;;;;;;;6293206;28;20228;-71
2022/10/04 15:45:01;;;;;;;17.30;14.35;;;;;;;;;;6292730;28;20101;-64
2022/10/04 15:48:23;;;;;;;19.38;15.85;;;;;;;;;;6291551;28;20052;-64
2022/10/04 15:51:43;;;;;;;23.30;16.60;;;;;;;;;;6292865;28;20056;-64
2022/10/04 15:55:04;;;;;;;19.88;14.98;;;;;;;;;;6294679;28;20044;-66
2022/10/04 15:58:22;;;;;;;20.17;15.45;;;;;;;;;;6293064;28;20067;-67
2022/10/04 16:01:41;;;;;;;19.65;15.15;;;;;;;;;;6291587;28;20044;-65
2022/10/04 16:04:46;;;;;;;20.23;15.43;;;;;;;;;;6289368;28;20099;-66
2022/10/04 16:08:19;;;;;;;19.25;14.98;;;;;;;;;;6291465;28;20102;-65
2022/10/04 16:11:34;;;;;;;20.98;15.32;;;;;;;;;;6287302;28;20146;-66
2022/10/04 16:14:59;;;;;;;17.00;13.77;;;;;;;;;;6292156;28;22282;-66
2022/10/04 16:18:20;;;;;;;20.65;14.20;;;;;;;;;;6293420;28;20048;-65
2022/10/04 16:21:28;;;;;;;18.15;13.32;;;;;;;;;;6283415;28;20056;-66
2022/10/04 16:24:47;;;;;;;17.63;12.75;;;;;;;;;;6288035;28;20080;-65
2022/10/04 16:28:01;;;;;;;20.27;15.05;;;;;;;;;;6287420;28;20116;-66
2022/10/04 16:31:23;;;;;;;18.08;13.60;;;;;;;;;;6294938;28;20048;-66
2022/10/04 16:34:34;;;;;;;18.27;12.90;;;;;;;;;;6291658;28;20043;-66
2022/10/04 16:37:38;;;;;;;19.98;14.02;;;;;;;;;;6293941;28;20150;-65
2022/10/04 16:40:58;;;;;;;19.70;13.27;;;;;;;;;;6293599;28;20045;-68
2022/10/04 16:44:03;;;;;;;19.67;14.40;;;;;;;;;;6290383;28;20158;-66
2022/10/04 16:47:18;;;;;;;19.77;14.07;;;;;;;;;;6293669;28;20063;-65
2022/10/04 16:50:49;;;;;;;21.13;15.05;;;;;;;;;;6292725;28;20071;-65
2022/10/04 16:53:55;;;;;;;21.02;14.52;;;;;;;;;;6294587;28;20064;-67
2022/10/04 16:57:13;;;;;;;17.17;12.82;;;;;;;;;;6295817;28;20089;-67
2022/10/04 17:00:37;;;;;;;18.00;13.02;;;;;;;;;;6294309;28;20475;-71
2022/10/04 17:03:46;;;;;;;20.77;13.43;;;;;;;;;;6291358;28;20213;-68
2022/10/04 17:06:51;;;;;;;18.92;13.95;;;;;;;;;;6295754;28;20111;-67
2022/10/04 17:09:57;;;;;;;18.95;13.70;;;;;;;;;;6291846;28;20049;-65
2022/10/04 17:13:07;;;;;;;16.50;11.95;;;;;;;;;;6285798;28;20237;-65
2022/10/04 17:16:12;;;;;;;18.15;12.88;;;;;;;;;;6292973;28;20139;-65
2022/10/04 17:19:19;;;;;;;18.10;13.60;;;;;;;;;;6295753;28;20051;-64
2022/10/04 17:22:32;;;;;;;25.45;13.90;;;;;;;;;;6294289;28;20063;-65
2022/10/04 17:25:39;;;;;;;18.65;13.48;;;;;;;;;;6292965;28;20079;-66
2022/10/04 17:28:46;;;;;;;21.20;13.93;;;;;;;;;;6291264;28;20337;-66
2022/10/04 17:31:54;;;;;;;17.13;13.30;;;;;;;;;;6292730;28;20148;-65
2022/10/04 17:35:08;;;;;;;17.75;12.98;;;;;;;;;;6287831;28;20056;-65
2022/10/04 17:38:16;;;;;;;19.48;14.63;;;;;;;;;;6288168;28;20085;-65
2022/10/04 17:41:27;;;;;;;16.33;13.90;;;;;;;;;;6289990;28;20082;-67
2022/10/04 17:44:56;;;;;;;20.40;15.23;;;;;;;;;;6299262;28;20044;-64
2022/10/04 17:55:16;;;;;;;24.30;14.93;;;;;;;;;;6294072;28;20052;-64
2022/10/04 17:58:22;;;;;;;22.23;14.77;;;;;;;;;;6298437;28;20049;-65
2022/10/04 18:01:27;;;;;;;20.83;14.70;;;;;;;;;;6300269;28;20106;-64
2022/10/04 18:04:32;;;;;;;18.27;14.63;;;;;;;;;;6298697;28;20068;-64
2022/10/04 18:07:38;;;;;;;23.20;14.77;;;;;;;;;;6296448;28;20052;-63
2022/10/04 18:10:49;;;;;;;20.92;15.90;;;;;;;;;;6300368;28;20136;-68
2022/10/04 18:13:56;;;;;;;23.23;16.13;;;;;;;;;;6304380;28;20231;-67
2022/10/04 18:17:00;;;;;;;22.83;15.80;;;;;;;;;;6303876;28;20048;-67
2022/10/04 18:20:19;;;;;;;23.42;17.55;;;;;;;;;;6300841;28;20049;-65
2022/10/04 18:23:27;;;;;;;23.88;16.38;;;;;;;;;;6302265;28;20253;-70
2022/10/04 18:26:30;;;;;;;25.88;16.83;;;;;;;;;;6277923;28;20229;-68
2022/10/04 18:29:38;;;;;;;27.05;19.48;;;;;;;;;;6293105;28;20088;-63
2022/10/04 18:32:40;;;;;;;240.38;162.85;;;;;;;;;;6300005;28;20097;-62
2022/10/04 18:35:50;;;;;;;127.72;83.88;;;;;;;;;;6296611;28;20065;-63
2022/10/04 18:39:03;;;;;;;251.73;162.63;;;;;;;;;;6296803;28;20060;-63
2022/10/04 18:42:17;;;;;;;211.82;127.57;;;;;;;;;;6297877;28;20063;-63
2022/10/04 18:45:21;;;;;;;231.88;135.77;;;;;;;;;;6299179;28;20333;-64
2022/10/04 18:48:37;;;;;;;397.25;280.65;;;;;;;;;;6285667;28;20240;-61
2022/10/04 18:51:48;;;;;;;118.15;74.18;;;;;;;;;;6300779;28;20072;-61
2022/10/04 18:54:57;;;;;;;74.70;53.78;;;;;;;;;;6300838;28;20217;-62
2022/10/04 19:05:02;;;;;;;29.30;19.75;;;;;;;;;;6296157;28;20304;-67
2022/10/04 19:08:12;;;;;;;27.50;20.48;;;;;;;;;;6291678;28;20111;-65
2022/10/04 19:11:16;;;;;;;28.83;20.45;;;;;;;;;;6291225;28;20052;-67
2022/10/04 19:14:24;;;;;;;29.35;20.65;;;;;;;;;;6288829;28;20252;-66